KSLN/SLN METAR and TAF weather

Enter ICAO airport designator
Station Type Date Time Source
KSLN METAR 2019/04/18 21:53 UTC NOAA

KSLN 182153Z 36021G31KT 10SM SCT110 17/02 A2989 RMK AO2 PK WND 35043/2114 SLP117 T01720022


Station Type Date Time Source
KSLN Decoded METAR 2019/04/18 21:53 UTC NOAA

SALINA MUNICIPAL AIRPORT, KS, United States (KSLN) 38-47N 97-39W 385M
Apr 18, 2019 - 05:53 PM EDT / 2019.04.18 2153 UTC
Wind: from the N (360 degrees) at 24 MPH (21 KT) gusting to 36 MPH (31 KT):0
Visibility: 10 mile(s):0
Sky conditions: partly cloudy
Temperature: 63.0 F (17.2 C)
Dew Point: 36.0 F (2.2 C)
Relative Humidity: 36%
Pressure (altimeter): 29.89 in. Hg (1012 hPa)
ob: KSLN 182153Z 36021G31KT 10SM SCT110 17/02 A2989 RMK AO2 PK WND 35043/2114 SLP117 T01720022
cycle: 22

Station Type Date Time Source
KSLN TAF 2019/04/18 20:24 UTC NOAA

TAF
AMD KSLN 182022Z 1820/1918 35018KT P6SM VCSH SCT070
TEMPO 1820/1823 P6SM -RA BKN070
FM190000 34017KT P6SM SCT080
FM190300 34010KT P6SM FEW250

Example: see airport list